Time;durP1;ratioP1;P1;durP2;ratioP2;P2;SDS_P1;SDS_P2;PMS_P1;PMS_P2;Temp;Humidity;BMP_temperature;BMP_pressure;BME280_temperature;BME280_humidity;BME280_pressure;Samples;Min_cycle;Max_cycle;Signal;HPM_P1;HPM_P2
2023/09/21 00:02:13;;;;;;;;;3.25;3.25;;;;;22.74;64.93;99636.41;6186932;22;47582;-71
2023/09/21 00:04:39;;;;;;;;;3.75;3.75;;;;;22.67;65.12;99617.13;6214704;22;45348;-71
2023/09/21 00:07:05;;;;;;;;;4.25;2.75;;;;;22.53;64.87;99596.75;6214472;22;45324;-71
2023/09/21 00:09:32;;;;;;;;;3.00;3.00;;;;;22.61;64.94;99603.28;6214929;22;45245;-71
2023/09/21 00:11:57;;;;;;;;;2.75;2.75;;;;;22.59;65.10;99608.88;6214467;22;46430;-71
2023/09/21 00:14:23;;;;;;;;;3.75;2.00;;;;;22.60;65.22;99612.44;6213862;22;45569;-72
2023/09/21 00:16:48;;;;;;;;;3.75;3.75;;;;;22.67;64.98;99619.84;6214854;22;45690;-72
2023/09/21 00:19:14;;;;;;;;;3.75;3.00;;;;;22.63;65.24;99617.59;6215332;22;45600;-72
2023/09/21 00:21:39;;;;;;;;;2.50;2.50;;;;;22.65;64.77;99624.56;6187811;22;47909;-71
2023/09/21 00:24:05;;;;;;;;;1.00;1.00;;;;;22.41;65.03;99586.28;6188089;22;45508;-71
2023/09/21 00:26:31;;;;;;;;;3.50;3.50;;;;;22.55;65.11;99611.06;6188386;22;45288;-72
2023/09/21 00:28:56;;;;;;;;;4.00;4.00;;;;;22.53;65.29;99599.47;6214048;22;45284;-72
2023/09/21 00:31:21;;;;;;;;;3.75;3.75;;;;;22.62;65.48;99613.16;6213814;22;48007;-72
2023/09/21 00:33:47;;;;;;;;;6.50;5.75;;;;;22.61;65.66;99615.03;6215837;22;45378;-72
2023/09/21 00:36:13;;;;;;;;;5.25;5.25;;;;;22.53;65.45;99598.63;6215535;22;45248;-71
2023/09/21 00:38:38;;;;;;;;;4.50;4.00;;;;;22.50;65.34;99594.38;6215723;22;45446;-71
2023/09/21 00:41:04;;;;;;;;;2.50;2.50;;;;;22.60;65.84;99609.75;6215421;22;45323;-71
2023/09/21 00:43:30;;;;;;;;;2.50;2.50;;;;;22.54;65.86;99601.19;6215132;22;45379;-71
2023/09/21 00:46:01;;;;;;;;;2.25;2.25;;;;;22.47;65.72;99591.94;6215318;22;45541;-71
2023/09/21 00:48:33;;;;;;;;;5.00;3.00;;;;;22.52;66.23;99608.66;6215806;22;45456;-71
2023/09/21 00:51:01;;;;;;;;;4.00;3.00;;;;;22.38;65.97;99593.69;6187837;22;48350;-71
2023/09/21 00:53:28;;;;;;;;;1.50;1.50;;;;;22.42;66.13;99601.56;6188404;22;45960;-72
2023/09/21 00:55:59;;;;;;;;;2.00;2.00;;;;;22.45;66.57;99602.09;6187471;22;45533;-72
2023/09/21 00:58:26;;;;;;;;;2.50;2.50;;;;;22.29;66.18;99572.06;6189021;22;45574;-72
2023/09/21 01:00:54;;;;;;;;;2.00;2.00;;;;;22.24;66.62;99587.94;6189311;22;46259;-71
2023/09/21 01:03:20;;;;;;;;;3.00;2.00;;;;;22.28;66.96;99589.31;6189248;22;45341;-71
2023/09/21 01:05:48;;;;;;;;;2.25;2.00;;;;;22.06;67.48;99550.69;6189081;22;45328;-72
2023/09/21 01:08:21;;;;;;;;;3.00;3.00;;;;;22.25;67.75;99581.47;6215661;22;45436;-71
2023/09/21 01:10:50;;;;;;;;;2.75;2.00;;;;;22.22;68.44;99577.22;6216148;22;47002;-71
2023/09/21 01:13:19;;;;;;;;;1.75;1.75;;;;;22.30;68.57;99588.22;6216112;22;45506;-72
2023/09/21 01:15:57;;;;;;;;;2.25;2.00;;;;;22.16;68.61;99577.81;6216664;22;45241;-71
2023/09/21 01:18:22;;;;;;;;;3.00;3.00;;;;;22.10;69.24;99567.53;6188977;22;45361;-71
2023/09/21 01:20:51;;;;;;;;;2.25;2.00;;;;;22.29;68.78;99596.50;6216804;22;45223;-71
2023/09/21 01:23:24;;;;;;;;;2.00;2.00;;;;;22.19;69.27;99586.50;6189022;22;45427;-72
2023/09/21 01:25:50;;;;;;;;;2.25;2.25;;;;;22.07;70.30;99574.16;6216378;22;45387;-71
2023/09/21 01:28:22;;;;;;;;;2.00;2.00;;;;;21.95;69.71;99562.66;6216621;22;45471;-72
2023/09/21 01:30:51;;;;;;;;;3.25;3.25;;;;;22.16;70.18;99594.97;6216671;22;46206;-72
2023/09/21 01:33:17;;;;;;;;;5.75;3.00;;;;;22.16;70.33;99596.84;6188694;22;45456;-72
2023/09/21 01:35:43;;;;;;;;;4.00;3.25;;;;;22.12;70.55;99592.69;6189772;22;45292;-71
2023/09/21 01:38:09;;;;;;;;;2.25;2.25;;;;;22.01;70.95;99586.47;6215913;22;45328;-71
2023/09/21 01:40:36;;;;;;;;;1.75;1.75;;;;;22.05;71.25;99587.03;6188762;22;46704;-71
2023/09/21 01:43:16;;;;;;;;;2.00;2.00;;;;;21.90;71.27;99545.94;6215746;22;45562;-71
2023/09/21 01:45:44;;;;;;;;;4.00;2.75;;;;;21.91;71.42;99565.81;6215389;22;45314;-71
2023/09/21 01:48:11;;;;;;;;;2.75;2.75;;;;;21.92;72.70;99564.78;6216704;22;45436;-71
2023/09/21 01:50:43;;;;;;;;;2.50;2.25;;;;;21.80;71.98;99559.59;6216418;22;46419;-71
2023/09/21 01:53:22;;;;;;;;;3.75;2.00;;;;;21.95;72.91;99578.94;6215919;22;45498;-71
2023/09/21 01:55:49;;;;;;;;;3.50;2.50;;;;;21.74;73.33;99548.47;6216500;22;45253;-71
2023/09/21 01:58:16;;;;;;;;;2.75;2.75;;;;;21.76;74.19;99555.44;6189399;22;45564;-71
2023/09/21 02:00:43;;;;;;;;;3.50;3.50;;;;;21.88;74.51;99566.97;6188767;22;47180;-71
2023/09/21 02:03:10;;;;;;;;;4.00;3.00;;;;;21.67;74.92;99529.19;6215841;22;45483;-71
2023/09/21 02:05:36;;;;;;;;;2.00;2.00;;;;;21.69;74.61;99538.03;6189005;22;45772;-71
2023/09/21 02:08:04;;;;;;;;;3.25;2.00;;;;;21.72;75.47;99548.63;6188728;22;45561;-71
2023/09/21 02:10:32;;;;;;;;;3.25;1.75;;;;;21.50;75.21;99514.56;6189086;22;47212;-71
2023/09/21 02:12:59;;;;;;;;;4.00;3.00;;;;;21.61;75.63;99527.94;6216103;22;45358;-71
2023/09/21 02:15:26;;;;;;;;;6.25;3.00;;;;;21.59;76.08;99523.66;6216162;22;45332;-70
2023/09/21 02:17:55;;;;;;;;;2.00;2.00;;;;;21.62;76.66;99531.53;6216434;22;45258;-71
2023/09/21 02:20:24;;;;;;;;;1.00;1.00;;;;;21.28;76.86;99481.34;6216099;22;46092;-71
2023/09/21 02:22:57;;;;;;;;;2.50;2.25;;;;;21.31;76.26;99482.88;6215773;22;45403;-71
2023/09/21 02:25:22;;;;;;;;;4.00;2.50;;;;;21.55;77.30;99522.25;6190443;22;45415;-70
2023/09/21 02:27:48;;;;;;;;;3.00;3.00;;;;;21.28;77.69;99488.59;6216445;22;45372;-71
2023/09/21 02:30:21;;;;;;;;;4.50;2.00;;;;;21.28;77.89;99478.63;6216250;22;45621;-71
2023/09/21 02:32:50;;;;;;;;;2.25;2.25;;;;;21.26;78.23;99485.19;6216092;22;45356;-71
2023/09/21 02:35:26;;;;;;;;;3.00;3.00;;;;;21.31;78.99;99484.75;6189116;22;45383;-71
2023/09/21 02:37:53;;;;;;;;;1.00;1.00;;;;;21.26;78.89;99485.19;6215995;22;46093;-71
2023/09/21 02:40:19;;;;;;;;;3.00;2.00;;;;;21.37;78.71;99492.31;6215807;22;46427;-71
2023/09/21 02:42:48;;;;;;;;;3.00;3.00;;;;;21.35;79.18;99494.28;6188641;22;45601;-70
2023/09/21 02:45:14;;;;;;;;;3.25;2.25;;;;;21.26;78.77;99469.75;6215624;22;45498;-70
2023/09/21 02:47:43;;;;;;;;;2.25;2.25;;;;;21.32;79.17;99483.72;6216357;22;45367;-70
2023/09/21 02:50:21;;;;;;;;;2.25;2.25;;;;;21.31;78.90;99493.75;6216056;22;45366;-71
2023/09/21 02:52:47;;;;;;;;;1.75;1.75;;;;;21.20;79.36;99461.34;6215566;22;45414;-70
2023/09/21 02:55:16;;;;;;;;;3.25;3.00;;;;;21.25;79.48;99469.91;6216187;22;45269;-70
2023/09/21 02:57:41;;;;;;;;;2.00;2.00;;;;;21.23;80.13;99455.63;6216304;22;45343;-71
2023/09/21 03:00:21;;;;;;;;;3.00;2.00;;;;;21.07;80.16;99427.28;6216011;22;45379;-71
2023/09/21 03:02:49;;;;;;;;;2.00;2.00;;;;;21.08;80.14;99434.44;6215894;22;45293;-71
2023/09/21 03:05:16;;;;;;;;;3.00;2.00;;;;;21.21;80.47;99460.38;6188667;22;45359;-71
2023/09/21 03:07:43;;;;;;;;;2.00;2.00;;;;;21.04;80.44;99424.03;6215929;22;45540;-71
2023/09/21 03:10:10;;;;;;;;;1.00;1.00;;;;;21.04;80.20;99443.03;6215428;22;45439;-71
2023/09/21 03:12:39;;;;;;;;;2.25;2.25;;;;;21.18;80.98;99460.66;6215827;22;45336;-71
2023/09/21 03:15:13;;;;;;;;;3.00;2.00;;;;;21.07;81.07;99432.72;6188809;22;45335;-71
2023/09/21 03:17:40;;;;;;;;;2.00;2.00;;;;;21.03;80.85;99438.59;6216177;22;45412;-71
2023/09/21 03:20:23;;;;;;;;;3.00;2.00;;;;;21.09;80.19;99446.97;6188524;22;47211;-71
2023/09/21 03:22:48;;;;;;;;;2.00;2.00;;;;;21.02;81.14;99436.91;6187705;22;45615;-71
2023/09/21 03:25:16;;;;;;;;;3.00;2.00;;;;;21.05;80.48;99455.59;6216117;22;45257;-71
2023/09/21 03:27:48;;;;;;;;;1.75;1.75;;;;;21.09;80.76;99443.44;6216577;22;45739;-71
2023/09/21 03:30:13;;;;;;;;;1.25;1.25;;;;;20.97;81.13;99422.94;6188510;22;46696;-71
2023/09/21 03:32:40;;;;;;;;;3.00;2.00;;;;;21.03;81.15;99425.91;6215915;22;45359;-71
2023/09/21 03:35:06;;;;;;;;;1.25;1.25;;;;;21.12;81.40;99434.13;6216048;22;45567;-71
2023/09/21 03:37:33;;;;;;;;;1.50;1.50;;;;;21.00;81.26;99417.19;6188778;22;45483;-71
2023/09/21 03:39:58;;;;;;;;;2.00;1.00;;;;;20.99;81.85;99423.63;6216220;22;45436;-71
2023/09/21 03:42:23;;;;;;;;;2.00;2.00;;;;;21.05;81.21;99440.16;6215635;22;45246;-71
2023/09/21 03:44:49;;;;;;;;;1.00;1.00;;;;;21.12;81.85;99445.84;6215750;22;45237;-71
2023/09/21 03:47:17;;;;;;;;;2.00;2.00;;;;;21.12;81.91;99448.56;6216122;22;45369;-71
2023/09/21 03:49:44;;;;;;;;;0.00;0.00;;;;;20.89;81.97;99412.81;6216173;22;45964;-71
2023/09/21 03:52:16;;;;;;;;;2.00;1.00;;;;;20.94;81.84;99409.66;6188520;22;45697;-71
2023/09/21 03:54:42;;;;;;;;;1.00;1.00;;;;;21.05;81.57;99434.72;6188479;22;45270;-70
2023/09/21 03:57:11;;;;;;;;;0.75;0.75;;;;;20.92;81.90;99412.50;6216004;22;45297;-71
2023/09/21 03:59:37;;;;;;;;;1.75;1.75;;;;;20.97;82.64;99426.47;6215285;22;45864;-71
2023/09/21 04:02:03;;;;;;;;;1.00;1.00;;;;;20.86;82.00;99410.38;6215906;22;45282;-70
2023/09/21 04:04:29;;;;;;;;;0.50;0.25;;;;;20.89;82.68;99416.38;6188337;22;45261;-71
2023/09/21 04:06:56;;;;;;;;;3.00;1.00;;;;;20.78;82.87;99396.72;6188557;22;45398;-71
2023/09/21 04:09:21;;;;;;;;;2.25;2.25;;;;;20.90;82.44;99419.94;6215134;22;45297;-71
2023/09/21 04:11:47;;;;;;;;;2.00;2.00;;;;;20.85;82.83;99408.69;6163744;22;45547;-71
2023/09/21 04:14:13;;;;;;;;;1.50;1.00;;;;;20.91;82.80;99427.94;6215508;22;45406;-71
2023/09/21 04:16:38;;;;;;;;;2.00;1.00;;;;;20.77;83.23;99400.44;6215586;22;45544;-71
2023/09/21 04:19:05;;;;;;;;;2.25;1.25;;;;;20.78;83.22;99413.84;6215250;22;52613;-71
2023/09/21 04:21:31;;;;;;;;;2.25;1.00;;;;;20.79;82.95;99403.84;6215695;22;45469;-71
2023/09/21 04:23:57;;;;;;;;;1.00;1.00;;;;;20.83;82.83;99408.84;6215484;22;45261;-71
2023/09/21 04:26:22;;;;;;;;;2.00;1.50;;;;;21.00;82.77;99438.88;6187675;22;45290;-71
2023/09/21 04:28:49;;;;;;;;;2.50;1.50;;;;;20.91;83.21;99399.94;6187650;22;46626;-71
2023/09/21 04:31:15;;;;;;;;;1.25;1.25;;;;;20.88;83.24;99408.38;6215502;22;45285;-71
2023/09/21 04:33:41;;;;;;;;;1.00;1.00;;;;;20.88;83.34;99406.53;6187906;22;45304;-71
2023/09/21 04:36:07;;;;;;;;;2.00;2.00;;;;;20.84;83.09;99398.84;6215599;22;45453;-71
2023/09/21 04:38:32;;;;;;;;;3.00;2.00;;;;;20.83;83.54;99402.53;6214852;22;45374;-70
2023/09/21 04:40:58;;;;;;;;;3.75;2.00;;;;;20.72;83.62;99366.47;6215847;22;45379;-71
2023/09/21 04:43:28;;;;;;;;;0.25;0.25;;;;;20.94;83.53;99415.09;6214877;22;45335;-71
2023/09/21 04:45:54;;;;;;;;;2.00;2.00;;;;;20.72;83.43;99361.06;6215626;22;45419;-71
2023/09/21 04:48:19;;;;;;;;;2.00;1.25;;;;;20.91;83.13;99400.81;6215299;22;45242;-71
2023/09/21 04:50:51;;;;;;;;;4.50;3.25;;;;;20.72;83.50;99365.63;6215370;22;45232;-71
2023/09/21 04:53:16;;;;;;;;;2.50;2.50;;;;;20.75;83.65;99368.06;6188443;22;45403;-71
2023/09/21 04:55:42;;;;;;;;;2.00;2.00;;;;;20.79;84.00;99371.31;6188229;22;45383;-71
2023/09/21 04:58:07;;;;;;;;;1.00;1.00;;;;;20.85;83.92;99377.00;6215178;22;45274;-71
2023/09/21 05:00:33;;;;;;;;;4.25;3.00;;;;;20.81;83.94;99375.56;6187952;22;45285;-71
2023/09/21 05:02:59;;;;;;;;;4.50;3.00;;;;;20.64;83.80;99352.81;6188060;22;45305;-71
2023/09/21 05:05:26;;;;;;;;;1.50;1.50;;;;;20.76;83.54;99375.16;6215182;22;45505;-70
2023/09/21 05:07:52;;;;;;;;;3.00;3.00;;;;;20.73;84.66;99359.19;6214309;22;47578;-71
2023/09/21 05:10:17;;;;;;;;;3.50;2.00;;;;;20.57;84.47;99332.69;6186928;22;45410;-70
2023/09/21 05:12:43;;;;;;;;;2.00;2.00;;;;;20.67;84.17;99347.09;6215511;22;45340;-70
2023/09/21 05:15:11;;;;;;;;;4.00;2.75;;;;;20.64;84.52;99358.22;6214943;22;45534;-71
2023/09/21 05:17:36;;;;;;;;;1.75;1.75;;;;;20.54;84.41;99332.97;6187612;22;48066;-70
2023/09/21 05:20:05;;;;;;;;;2.75;2.75;;;;;20.47;84.85;99315.63;6187510;22;45569;-71
2023/09/21 05:22:32;;;;;;;;;2.25;2.25;;;;;20.59;84.28;99351.53;6215013;22;45390;-71
2023/09/21 05:24:59;;;;;;;;;3.75;3.75;;;;;20.55;84.34;99359.09;6214751;22;45426;-71
2023/09/21 05:27:24;;;;;;;;;3.00;3.00;;;;;20.35;84.70;99328.50;6215228;22;45430;-71
2023/09/21 05:29:49;;;;;;;;;3.00;3.00;;;;;20.57;84.68;99364.38;6214718;22;45368;-71
2023/09/21 05:32:15;;;;;;;;;4.25;3.25;;;;;20.53;84.79;99361.97;6188061;22;45399;-71
2023/09/21 05:34:40;;;;;;;;;3.25;1.75;;;;;20.41;85.40;99352.28;6187635;22;45692;-71
2023/09/21 05:37:07;;;;;;;;;3.25;3.00;;;;;20.21;85.34;99321.66;6187325;22;47733;-71
2023/09/21 05:39:32;;;;;;;;;2.50;2.50;;;;;20.33;85.12;99353.03;6187504;22;45297;-71
2023/09/21 05:41:58;;;;;;;;;5.00;3.75;;;;;20.26;85.48;99351.88;6188856;22;45297;-71
2023/09/21 05:44:25;;;;;;;;;3.00;3.00;;;;;20.39;85.32;99365.13;6215901;22;45475;-71
2023/09/21 05:46:51;;;;;;;;;3.25;3.25;;;;;20.39;85.80;99373.25;6189350;22;47485;-71
2023/09/21 05:49:22;;;;;;;;;3.00;3.00;;;;;20.38;85.77;99379.69;6216114;22;45444;-71
2023/09/21 05:51:49;;;;;;;;;3.00;3.00;;;;;20.33;85.66;99366.56;6215752;22;45321;-71
2023/09/21 05:54:16;;;;;;;;;5.00;3.00;;;;;20.45;85.89;99391.66;6215536;22;45384;-71
2023/09/21 05:56:43;;;;;;;;;2.75;2.75;;;;;20.19;85.78;99353.47;6189356;22;48125;-70
2023/09/21 05:59:08;;;;;;;;;2.00;2.00;;;;;20.26;85.51;99370.00;6215970;22;45589;-71
2023/09/21 06:01:34;;;;;;;;;3.00;2.00;;;;;20.23;85.78;99379.28;6216702;22;45291;-71
2023/09/21 06:04:02;;;;;;;;;2.75;2.75;;;;;20.13;86.22;99359.47;6216385;22;45325;-71
2023/09/21 06:06:33;;;;;;;;;3.50;2.00;;;;;20.27;86.68;99388.81;6188788;22;47838;-70
2023/09/21 06:08:59;;;;;;;;;3.50;2.00;;;;;20.13;85.38;99367.59;6215289;22;45358;-71
2023/09/21 06:11:29;;;;;;;;;2.50;2.50;;;;;20.24;86.17;99389.09;6189466;22;45920;-71
2023/09/21 06:13:54;;;;;;;;;5.00;3.00;;;;;20.12;86.37;99377.56;6188283;22;45242;-70
2023/09/21 06:16:21;;;;;;;;;3.00;3.00;;;;;20.09;86.63;99385.13;6216052;22;45486;-70
2023/09/21 06:18:48;;;;;;;;;5.00;3.00;;;;;20.17;86.20;99391.53;6216572;22;45233;-70
2023/09/21 06:21:17;;;;;;;;;3.00;3.00;;;;;20.21;85.92;99392.09;6216171;22;45535;-71
2023/09/21 06:23:44;;;;;;;;;4.00;3.00;;;;;20.31;85.95;99405.63;6187939;22;45668;-73
2023/09/21 06:26:12;;;;;;;;;3.75;3.00;;;;;20.13;86.21;99373.88;6212867;22;45474;-76
2023/09/21 06:28:37;;;;;;;;;2.00;2.00;;;;;20.07;86.35;99374.44;6188720;22;45494;-76
2023/09/21 06:31:04;;;;;;;;;2.25;2.25;;;;;20.13;86.10;99368.47;6216058;22;45455;-73
2023/09/21 06:33:32;;;;;;;;;3.00;3.00;;;;;20.24;86.41;99375.56;6188191;22;45293;-74
2023/09/21 06:35:57;;;;;;;;;2.00;2.00;;;;;20.10;85.99;99352.50;6214123;22;45669;-74
2023/09/21 06:38:23;;;;;;;;;4.75;4.25;;;;;20.13;86.47;99364.88;6214809;22;45364;-73
2023/09/21 06:40:48;;;;;;;;;2.75;2.75;;;;;20.21;86.13;99389.41;6216269;22;45407;-74
2023/09/21 06:43:14;;;;;;;;;2.75;2.75;;;;;20.14;85.99;99377.44;6215906;22;45351;-73
2023/09/21 06:45:41;;;;;;;;;6.00;3.00;;;;;20.19;86.06;99388.69;6188125;22;46271;-74
2023/09/21 06:48:08;;;;;;;;;3.75;3.75;;;;;20.12;86.49;99390.28;6215608;22;45501;-74
2023/09/21 06:50:34;;;;;;;;;3.00;3.00;;;;;20.19;86.40;99402.22;6214039;22;45492;-74
2023/09/21 06:52:59;;;;;;;;;3.50;3.00;;;;;20.16;86.56;99407.94;6187010;22;45742;-74
2023/09/21 06:55:28;;;;;;;;;1.75;1.25;;;;;20.23;86.49;99425.34;6214843;22;45341;-73
2023/09/21 06:57:53;;;;;;;;;2.00;2.00;;;;;20.15;86.76;99415.22;6187450;22;45447;-73
2023/09/21 07:00:18;;;;;;;;;4.75;3.25;;;;;20.22;86.88;99425.50;6187911;22;45566;-74
2023/09/21 07:02:44;;;;;;;;;2.25;2.25;;;;;20.10;86.86;99403.97;6214654;22;45280;-74
2023/09/21 07:05:10;;;;;;;;;3.25;3.00;;;;;20.07;86.88;99395.28;6187002;22;46230;-74
2023/09/21 07:07:36;;;;;;;;;7.00;3.25;;;;;20.22;87.06;99415.50;6215039;22;45181;-73
2023/09/21 07:10:01;;;;;;;;;3.50;3.50;;;;;20.26;87.71;99418.78;6215918;22;45392;-73
2023/09/21 07:12:27;;;;;;;;;4.00;4.00;;;;;20.17;87.20;99404.25;6214891;22;45411;-73
2023/09/21 07:14:53;;;;;;;;;7.50;7.50;;;;;20.30;87.50;99421.06;6214905;22;45451;-74
2023/09/21 07:17:18;;;;;;;;;3.50;3.25;;;;;20.16;87.08;99400.69;6215394;22;45423;-73
2023/09/21 07:19:44;;;;;;;;;4.00;3.50;;;;;20.09;88.02;99390.56;6215912;22;45376;-74
2023/09/21 07:22:10;;;;;;;;;4.00;3.00;;;;;20.11;87.70;99392.13;6215465;22;45327;-73
2023/09/21 07:24:36;;;;;;;;;4.00;3.00;;;;;20.28;87.87;99416.75;6214682;22;46507;-73
2023/09/21 07:27:01;;;;;;;;;0.00;0.00;;;;;20.13;87.72;99379.31;6213150;22;45664;-72
2023/09/21 07:29:26;;;;;;;;;5.00;2.25;;;;;20.15;87.99;99382.72;6214690;22;45308;-70
2023/09/21 07:31:52;;;;;;;;;3.00;3.00;;;;;20.31;87.61;99402.94;6215316;22;45482;-69
2023/09/21 07:34:18;;;;;;;;;4.25;2.75;;;;;20.19;87.48;99372.44;6210105;22;45379;-70
2023/09/21 07:36:46;;;;;;;;;4.00;3.00;;;;;20.13;87.71;99365.75;6203406;22;45628;-71
2023/09/21 07:39:16;;;;;;;;;6.00;3.00;;;;;20.23;87.79;99376.59;6213225;22;45206;-70
2023/09/21 07:41:42;;;;;;;;;2.00;2.00;;;;;20.22;87.90;99383.00;6213987;22;45412;-70
2023/09/21 07:44:10;;;;;;;;;2.00;2.00;;;;;20.28;87.60;99386.97;6213807;22;45729;-70
2023/09/21 07:46:37;;;;;;;;;4.25;3.50;;;;;20.14;87.47;99367.44;6212096;22;45502;-70
2023/09/21 07:49:04;;;;;;;;;2.00;2.00;;;;;20.14;88.14;99356.59;6213575;22;45511;-70
2023/09/21 07:51:31;;;;;;;;;3.00;2.00;;;;;20.25;88.05;99382.69;6185150;22;45370;-70
2023/09/21 07:53:57;;;;;;;;;3.00;3.00;;;;;20.14;87.86;99363.88;6187639;22;46465;-70
2023/09/21 07:56:22;;;;;;;;;2.75;2.75;;;;;20.05;88.05;99352.06;6186906;22;45538;-70
2023/09/21 07:58:48;;;;;;;;;2.00;2.00;;;;;20.19;88.08;99375.16;6215050;22;45238;-70
2023/09/21 08:01:13;;;;;;;;;2.00;2.00;;;;;20.13;88.30;99375.72;6214112;22;45317;-70
2023/09/21 08:03:57;;;;;;;;;1.75;1.50;;;;;19.97;88.42;99360.91;5069695;28;45410;-70
2023/09/21 08:06:22;;;;;;;;;2.50;2.00;;;;;20.09;88.29;99382.44;5047598;28;45439;-69
2023/09/21 08:08:50;;;;;;;;;2.00;2.00;;;;;20.07;88.76;99365.47;5046722;28;45312;-69
2023/09/21 08:11:16;;;;;;;;;1.25;1.25;;;;;20.00;88.20;99351.66;5045138;28;45425;-69
2023/09/21 08:13:41;;;;;;;;;2.25;2.25;;;;;20.07;88.24;99362.78;5047481;28;46089;-69
2023/09/21 08:16:08;;;;;;;;;2.00;2.00;;;;;20.08;88.16;99367.16;5045626;28;45688;-70
2023/09/21 08:18:36;;;;;;;;;0.00;0.00;;;;;20.12;88.04;99372.16;5038439;28;46957;-71
2023/09/21 08:21:03;;;;;;;;;2.75;2.75;;;;;19.99;88.49;99366.19;5038934;28;45460;-70
2023/09/21 08:23:28;;;;;;;;;1.75;1.75;;;;;19.88;88.52;99350.06;5049212;28;48157;-70
2023/09/21 08:25:53;;;;;;;;;2.25;2.25;;;;;19.90;88.51;99362.50;5050183;28;49693;-70
2023/09/21 08:28:19;;;;;;;;;3.75;3.25;;;;;19.89;89.04;99359.94;5032709;28;52330;-70
2023/09/21 08:30:46;;;;;;;;;2.00;2.00;;;;;19.84;88.70;99354.94;5053528;28;45665;-69
2023/09/21 08:33:12;;;;;;;;;2.00;2.00;;;;;19.88;89.00;99366.31;5048637;28;46996;-69
2023/09/21 08:35:40;;;;;;;;;2.00;2.00;;;;;19.92;88.90;99363.19;5044419;28;45498;-70
2023/09/21 08:38:05;;;;;;;;;3.00;2.00;;;;;19.89;88.72;99357.22;5043314;28;47140;-70
2023/09/21 08:40:37;;;;;;;;;1.50;0.75;;;;;19.86;89.12;99360.22;5039479;28;45507;-70
2023/09/21 08:43:04;;;;;;;;;3.00;3.00;;;;;19.76;88.91;99352.97;5061379;28;47692;-70
2023/09/21 08:45:30;;;;;;;;;4.75;2.00;;;;;19.73;88.96;99347.78;5041289;28;45952;-70
2023/09/21 08:47:56;;;;;;;;;2.00;2.00;;;;;19.83;89.45;99369.50;5043409;28;45493;-70
2023/09/21 08:50:24;;;;;;;;;3.50;2.00;;;;;19.78;89.30;99356.38;5051885;28;45647;-70
2023/09/21 08:52:53;;;;;;;;;1.25;1.25;;;;;19.71;89.29;99347.09;5048473;28;46351;-70
2023/09/21 08:55:21;;;;;;;;;2.00;2.00;;;;;19.63;89.55;99333.41;5051990;28;45360;-70
2023/09/21 08:57:46;;;;;;;;;4.25;3.00;;;;;19.67;89.61;99337.53;5052278;28;46292;-70
2023/09/21 09:00:12;;;;;;;;;4.00;2.00;;;;;19.78;89.61;99350.13;5050561;28;45605;-70
2023/09/21 09:02:38;;;;;;;;;3.50;2.75;;;;;19.72;89.34;99346.06;5050041;28;46943;-70
2023/09/21 09:05:08;;;;;;;;;2.75;2.75;;;;;19.73;89.55;99336.97;5034612;28;45503;-70
2023/09/21 09:07:40;;;;;;;;;2.00;2.00;;;;;19.79;89.75;99351.81;5035647;28;45478;-69
2023/09/21 09:10:11;;;;;;;;;2.00;1.00;;;;;19.65;89.66;99331.41;5051129;28;45852;-70
2023/09/21 09:12:37;;;;;;;;;2.50;1.00;;;;;19.59;89.63;99310.31;5049183;28;46114;-69
2023/09/21 09:15:05;;;;;;;;;2.25;2.00;;;;;19.62;89.67;99324.41;5033559;28;45719;-70
2023/09/21 09:17:31;;;;;;;;;2.00;1.00;;;;;19.63;90.00;99320.72;5025845;28;45530;-70
2023/09/21 09:19:57;;;;;;;;;2.25;2.25;;;;;19.59;90.02;99307.59;5026514;28;45671;-70
2023/09/21 09:22:23;;;;;;;;;1.75;1.75;;;;;19.66;90.36;99316.84;5023756;28;45504;-70
2023/09/21 09:24:50;;;;;;;;;3.00;3.00;;;;;19.67;89.96;99315.88;5039378;28;45783;-70
2023/09/21 09:27:15;;;;;;;;;2.00;2.00;;;;;19.53;90.32;99279.28;5031842;28;45458;-70
2023/09/21 09:29:50;;;;;;;;;2.00;2.00;;;;;19.60;89.98;99293.09;5039166;28;45489;-70
2023/09/21 09:32:18;;;;;;;;;1.75;1.75;;;;;19.68;90.58;99295.06;5017395;28;47015;-70
2023/09/21 09:34:44;;;;;;;;;3.00;2.00;;;;;19.65;90.68;99290.81;5027799;28;45645;-69
2023/09/21 09:37:15;;;;;;;;;2.75;1.00;;;;;19.71;90.54;99300.19;5035970;28;45899;-69
2023/09/21 09:39:41;;;;;;;;;2.50;1.75;;;;;19.65;90.53;99288.09;5024846;28;45563;-70
2023/09/21 09:42:07;;;;;;;;;1.25;1.25;;;;;19.69;90.38;99310.31;5018592;28;46915;-70
2023/09/21 09:44:42;;;;;;;;;3.00;3.00;;;;;19.65;90.94;99295.38;5032119;28;45751;-70
2023/09/21 09:47:09;;;;;;;;;2.00;2.00;;;;;19.55;90.69;99285.38;5028898;28;45560;-70
2023/09/21 09:49:38;;;;;;;;;2.00;2.00;;;;;19.67;90.98;99312.31;5039363;28;45361;-70
2023/09/21 09:52:06;;;;;;;;;1.00;1.00;;;;;19.65;91.04;99319.72;5028534;28;46153;-70
2023/09/21 09:54:32;;;;;;;;;2.00;2.00;;;;;19.67;91.42;99315.88;5026472;28;45725;-70
2023/09/21 09:56:59;;;;;;;;;2.25;2.25;;;;;19.69;91.53;99324.69;5039009;28;45523;-70
2023/09/21 09:59:28;;;;;;;;;2.75;2.25;;;;;19.67;91.67;99315.88;5035436;28;45377;-70
2023/09/21 10:01:54;;;;;;;;;5.00;3.50;;;;;19.69;91.63;99305.75;5034486;28;46372;-70
2023/09/21 10:04:21;;;;;;;;;1.25;1.25;;;;;19.61;91.04;99303.78;5046630;28;45611;-70
2023/09/21 10:06:47;;;;;;;;;2.25;2.00;;;;;19.64;91.11;99316.16;5054413;28;45618;-70
2023/09/21 10:09:14;;;;;;;;;2.00;2.00;;;;;19.62;91.53;99308.16;5059302;28;45314;-70
2023/09/21 10:11:48;;;;;;;;;1.25;1.00;;;;;19.73;91.45;99306.31;5054005;28;45378;-70
2023/09/21 10:14:15;;;;;;;;;1.75;1.75;;;;;19.72;90.50;99304.63;5044999;28;45688;-70
2023/09/21 10:16:49;;;;;;;;;1.50;1.50;;;;;19.70;90.96;99301.19;5048248;28;45457;-70
2023/09/21 10:19:17;;;;;;;;;2.75;1.25;;;;;19.76;90.53;99314.19;5050754;28;45622;-70
2023/09/21 10:21:43;;;;;;;;;1.00;1.00;;;;;19.69;90.89;99299.47;5048919;28;45561;-70
2023/09/21 10:24:12;;;;;;;;;0.50;0.50;;;;;19.78;91.25;99307.63;5034852;28;45656;-70
2023/09/21 10:26:41;;;;;;;;;1.00;1.00;;;;;19.80;91.41;99305.63;5047004;28;45553;-70
2023/09/21 10:29:07;;;;;;;;;0.75;0.75;;;;;19.83;90.83;99309.03;5045663;28;45753;-70
2023/09/21 10:31:43;;;;;;;;;2.00;2.00;;;;;19.64;90.83;99280.97;5045423;28;45585;-69
2023/09/21 10:34:10;;;;;;;;;0.00;0.00;;;;;19.88;91.24;99323.88;5037169;28;45577;-69
2023/09/21 10:36:44;;;;;;;;;1.00;1.00;;;;;19.92;90.77;99337.97;5036762;28;45742;-70
2023/09/21 10:39:10;;;;;;;;;1.25;1.25;;;;;19.92;90.20;99343.41;5040717;28;45799;-70
2023/09/21 10:41:39;;;;;;;;;2.50;1.00;;;;;19.83;89.47;99333.41;5043516;28;45536;-69
2023/09/21 10:44:06;;;;;;;;;1.00;1.00;;;;;19.92;89.38;99343.41;5056700;28;45659;-70
2023/09/21 10:46:34;;;;;;;;;0.50;0.00;;;;;19.95;88.58;99357.50;5038611;28;45759;-70
2023/09/21 10:49:03;;;;;;;;;0.50;0.00;;;;;19.94;88.41;99358.47;5041743;28;45449;-69
2023/09/21 10:51:29;;;;;;;;;0.00;0.00;;;;;19.89;87.76;99359.94;5052368;28;45949;-69
2023/09/21 10:53:58;;;;;;;;;0.75;0.75;;;;;19.96;87.68;99378.19;5053766;28;45698;-69
2023/09/21 10:56:24;;;;;;;;;0.00;0.00;;;;;19.97;88.02;99370.91;5036579;28;45702;-69
2023/09/21 10:58:49;;;;;;;;;0.50;0.50;;;;;19.94;87.82;99373.88;5052208;28;45429;-69
2023/09/21 11:01:16;;;;;;;;;0.50;0.50;;;;;19.94;86.88;99388.28;5022772;28;47006;-69
2023/09/21 11:03:43;;;;;;;;;0.00;0.00;;;;;19.96;87.55;99393.53;5048216;28;45878;-69
2023/09/21 11:06:09;;;;;;;;;0.00;0.00;;;;;19.92;87.65;99373.19;5054229;28;45389;-69
2023/09/21 11:08:34;;;;;;;;;1.00;1.00;;;;;19.86;87.45;99355.63;5039348;28;46002;-69
2023/09/21 11:11:02;;;;;;;;;1.75;1.75;;;;;19.77;87.47;99330.28;5054606;28;45407;-69
2023/09/21 11:13:29;;;;;;;;;0.50;0.50;;;;;19.81;87.15;99325.44;5051284;28;45354;-70
2023/09/21 11:15:55;;;;;;;;;0.50;0.50;;;;;19.92;87.31;99330.69;5055235;28;45969;-69
2023/09/21 11:18:20;;;;;;;;;0.50;0.00;;;;;19.87;85.12;99324.88;5039874;28;45799;-69
2023/09/21 11:20:47;;;;;;;;;0.00;0.00;;;;;19.77;85.29;99310.47;5057364;28;45360;-69
2023/09/21 11:23:14;;;;;;;;;0.00;0.00;;;;;19.72;85.37;99293.78;5051589;28;45325;-69
2023/09/21 11:25:40;;;;;;;;;0.00;0.00;;;;;19.60;84.30;99285.81;5046239;28;45412;-69
2023/09/21 11:28:06;;;;;;;;;0.00;0.00;;;;;19.66;84.46;99313.31;5038474;28;45635;-70
2023/09/21 11:30:35;;;;;;;;;0.50;0.50;;;;;19.58;84.75;99322.16;5059053;28;45511;-70
2023/09/21 11:33:01;;;;;;;;;0.50;0.25;;;;;19.59;84.49;99331.97;5049900;28;46846;-69
2023/09/21 11:35:26;;;;;;;;;0.75;0.75;;;;;19.56;84.90;99324.13;5049556;28;45398;-69